Time;durP1;ratioP1;P1;durP2;ratioP2;P2;SDS_P1;SDS_P2;PMS_P1;PMS_P2;Temp;Humidity;BMP_temperature;BMP_pressure;BME280_temperature;BME280_humidity;BME280_pressure;Samples;Min_cycle;Max_cycle;Signal;HPM_P1;HPM_P2
2022/06/02 00:01:24;;;;;;;10.33;4.53;;;;;;;11.02;82.39;100449.69;3662640;80;98848;-85
2022/06/02 00:06:42;;;;;;;9.10;4.20;;;;;;;11.05;82.68;100447.54;3672798;80;99233;-85
2022/06/02 00:12:00;;;;;;;7.33;3.60;;;;;;;11.00;82.70;100434.11;3668971;79;98873;-85
2022/06/02 00:17:28;;;;;;;8.03;4.42;;;;;;;11.08;82.68;100451.73;3661579;80;99160;-85
2022/06/02 00:22:50;;;;;;;7.40;4.15;;;;;;;11.08;82.68;100451.73;3651407;79;99018;-85
2022/06/02 00:28:06;;;;;;;8.48;3.55;;;;;;;11.10;82.57;100454.89;3678764;80;98807;-85
2022/06/02 00:33:59;;;;;;;9.60;4.22;;;;;;;11.13;82.59;100467.87;3661535;79;98953;-86
2022/06/02 00:39:00;;;;;;;7.97;4.10;;;;;;;11.13;83.54;100468.48;3671038;80;33528;-85
2022/06/02 00:44:18;;;;;;;8.63;4.20;;;;;;;11.03;82.90;100443.00;3670203;80;99059;-86
2022/06/02 00:49:43;;;;;;;8.43;4.25;;;;;;;11.20;84.04;100483.70;3671885;79;98665;-86
2022/06/02 01:00:39;;;;;;;8.95;5.17;;;;;;;11.20;85.13;100461.08;3677915;79;98777;-86
2022/06/02 01:06:03;;;;;;;8.05;4.50;;;;;;;11.14;85.68;100438.38;3664333;80;99219;-86
2022/06/02 01:11:25;;;;;;;7.65;4.08;;;;;;;11.25;85.82;100458.55;3654969;79;99122;-86
2022/06/02 01:16:49;;;;;;;9.35;4.95;;;;;;;11.25;86.09;100459.93;3666269;79;99197;-86
2022/06/02 01:22:18;;;;;;;9.57;4.97;;;;;;;11.22;86.48;100448.28;3668395;80;98811;-86
2022/06/02 01:27:41;;;;;;;9.60;5.08;;;;;;;11.11;86.04;100461.97;3666175;80;32911;-86
2022/06/02 01:33:28;;;;;;;7.53;4.47;;;;;;;11.11;86.04;100461.97;3661682;79;99069;-86
2022/06/02 01:38:44;;;;;;;8.53;4.05;;;;;;;10.98;86.25;100466.76;3692072;78;99095;-86
2022/06/02 01:43:59;;;;;;;9.23;5.33;;;;;;;10.83;86.09;100465.02;3653441;79;99271;-86
2022/06/02 01:49:33;;;;;;;8.18;4.55;;;;;;;10.75;85.77;100475.16;3693816;79;99240;-86
2022/06/02 01:55:13;;;;;;;8.25;4.45;;;;;;;10.60;86.60;100479.52;3686648;79;98794;-85
2022/06/02 02:00:19;;;;;;;8.17;4.47;;;;;;;10.45;86.24;100479.94;3703076;79;97956;-86
2022/06/02 02:05:51;;;;;;;9.13;4.95;;;;;;;10.32;86.21;100473.67;3695660;79;98795;-86
2022/06/02 02:11:19;;;;;;;9.13;5.30;;;;;;;10.22;86.12;100481.20;3689348;79;98970;-86
2022/06/02 02:16:53;;;;;;;9.10;5.35;;;;;;;10.13;86.53;100495.23;3699026;79;99398;-80
2022/06/02 02:22:18;;;;;;;8.90;4.78;;;;;;;9.97;87.03;100494.58;3671259;80;98841;-86
2022/06/02 02:28:03;;;;;;;10.60;5.37;;;;;;;9.86;86.77;100507.38;3677737;80;97786;-87
2022/06/02 02:33:26;;;;;;;8.93;4.92;;;;;;;9.71;88.16;100494.56;3670234;79;98414;-87
2022/06/02 02:39:07;;;;;;;9.83;6.03;;;;;;;9.65;87.98;100502.14;3661835;80;98278;-87
2022/06/02 02:44:34;;;;;;;9.68;5.60;;;;;;;9.64;89.44;100503.28;3665092;80;98370;-86
2022/06/02 02:49:48;;;;;;;12.47;7.03;;;;;;;9.67;89.97;100495.12;3659442;80;98513;-86
2022/06/02 02:55:03;;;;;;;11.10;7.17;;;;;;;9.73;91.58;100510.70;3659692;80;98734;-86
2022/06/02 03:00:21;;;;;;;12.75;7.45;;;;;;;9.77;92.91;100508.20;3669672;79;98981;-86
2022/06/02 03:05:30;;;;;;;11.18;7.30;;;;;;;9.77;92.91;100508.20;3656007;80;98717;-86
2022/06/02 03:10:38;;;;;;;12.95;8.13;;;;;;;9.97;93.08;100521.30;3670859;79;98617;-86
2022/06/02 03:15:45;;;;;;;13.77;8.30;;;;;;;9.97;93.08;100521.30;3661350;80;98330;-87
2022/06/02 03:20:59;;;;;;;12.88;7.78;;;;;;;10.20;92.88;100550.92;3661853;80;98940;-81
2022/06/02 03:26:05;;;;;;;10.75;6.67;;;;;;;10.30;93.12;100542.81;3631079;80;98900;-87
2022/06/02 03:31:32;;;;;;;;;;;;;;;10.43;92.75;100531.00;3671532;79;99476;-87
2022/06/02 03:37:06;;;;;;;12.97;7.63;;;;;;;10.52;93.19;100551.56;3674660;80;85185;-87
2022/06/02 03:42:33;;;;;;;13.18;7.65;;;;;;;10.61;92.10;100550.70;3655880;80;99532;-87
2022/06/02 03:48:01;;;;;;;11.22;7.70;;;;;;;10.71;91.98;100562.44;3663960;79;99333;-86
2022/06/02 03:53:40;;;;;;;13.93;7.75;;;;;;;10.83;92.07;100580.08;3654690;79;99340;-87
2022/06/02 03:59:29;;;;;;;11.53;7.17;;;;;;;10.94;91.96;100566.42;3654718;79;99490;-87
2022/06/02 04:05:01;;;;;;;13.60;7.05;;;;;;;11.03;91.75;100584.27;3660318;79;99048;-86
2022/06/02 04:10:28;;;;;;;11.00;7.20;;;;;;;11.11;91.68;100587.30;3649713;80;32883;-86
2022/06/02 04:15:38;;;;;;;;;;;;;;;11.18;91.26;100579.10;3649533;79;98672;-87
2022/06/02 04:20:50;;;;;;;9.88;6.47;;;;;;;11.27;92.01;100584.31;3643185;79;85447;-86
2022/06/02 04:26:25;;;;;;;12.85;8.28;;;;;;;11.28;90.75;100596.94;3653902;80;99059;-87
2022/06/02 04:31:59;;;;;;;11.40;7.40;;;;;;;11.40;90.69;100605.71;3624878;79;99056;-86
2022/06/02 04:37:31;;;;;;;9.90;6.73;;;;;;;11.48;90.45;100620.36;3644096;79;99540;-86
2022/06/02 04:42:43;;;;;;;13.40;7.08;;;;;;;11.55;90.06;100630.10;3514193;82;98859;-87
2022/06/02 04:48:19;;;;;;;11.63;7.67;;;;;;;11.65;90.17;100636.31;3540429;82;99594;-86
2022/06/02 04:54:00;;;;;;;11.90;6.83;;;;;;;11.73;90.00;100634.63;3448613;83;99614;-86
2022/06/02 04:59:22;;;;;;;12.18;7.10;;;;;;;11.84;90.38;100636.89;3552533;81;99040;-86
2022/06/02 05:05:04;;;;;;;11.33;7.25;;;;;;;11.92;89.86;100641.32;3572138;80;98460;-86
2022/06/02 05:10:22;;;;;;;9.75;6.40;;;;;;;12.00;89.63;100651.83;3560107;80;32952;-87
2022/06/02 05:15:45;;;;;;;10.63;7.50;;;;;;;12.03;89.64;100637.26;3644003;79;98907;-82
2022/06/02 05:21:24;;;;;;;11.45;7.97;;;;;;;12.24;89.64;100656.17;3660307;79;98771;-78
2022/06/02 05:26:59;;;;;;;12.25;7.97;;;;;;;12.53;89.78;100654.42;3657051;79;98091;-81
2022/06/02 05:32:14;;;;;;;10.10;7.67;;;;;;;12.93;89.07;100663.31;3652287;79;99359;-81
2022/06/02 05:38:00;;;;;;;9.68;6.55;;;;;;;13.48;88.31;100668.94;3659729;79;99298;-82
2022/06/02 05:43:02;;;;;;;9.33;6.10;;;;;;;14.02;88.01;100676.16;3657528;79;99166;-81
2022/06/02 05:48:45;;;;;;;10.90;6.37;;;;;;;14.64;86.35;100687.84;3664409;79;99182;-81
2022/06/02 05:54:16;;;;;;;8.93;5.85;;;;;;;15.21;85.19;100689.89;3661179;79;99345;-82
2022/06/02 05:59:53;;;;;;;8.15;5.90;;;;;;;15.53;81.83;100698.29;3659492;79;98935;-81
2022/06/02 06:05:20;;;;;;;9.13;6.15;;;;;;;16.03;82.17;100707.91;3656902;80;98508;-82
2022/06/02 06:10:38;;;;;;;8.38;5.25;;;;;;;16.53;79.34;100696.66;3670985;79;26384;-82
2022/06/02 06:16:04;;;;;;;8.93;5.90;;;;;;;17.10;79.07;100705.20;3655950;79;98612;-82
2022/06/02 06:21:11;;;;;;;8.65;5.85;;;;;;;17.77;78.07;100704.59;3650975;79;98667;-81
2022/06/02 06:26:52;;;;;;;8.20;5.40;;;;;;;18.16;75.03;100715.19;3660465;78;98896;-81
2022/06/02 06:32:35;;;;;;;9.28;5.53;;;;;;;18.72;74.80;100710.91;3656595;79;98983;-81
2022/06/02 06:37:51;;;;;;;8.03;5.45;;;;;;;19.22;71.87;100714.38;3662951;79;98877;-80
2022/06/02 06:43:03;;;;;;;8.25;5.87;;;;;;;19.61;71.18;100719.18;3650736;79;98817;-81
2022/06/02 06:48:16;;;;;;;8.03;5.65;;;;;;;20.20;69.49;100715.66;3667196;80;98819;-80
2022/06/02 06:53:51;;;;;;;8.30;5.10;;;;;;;20.53;68.21;100722.23;3647848;79;98350;-80
2022/06/02 06:59:15;;;;;;;10.23;5.70;;;;;;;21.11;66.37;100725.35;3667648;79;33345;-81
2022/06/02 07:04:38;;;;;;;9.28;4.65;;;;;;;21.27;64.09;100720.31;3690064;79;98846;-81
2022/06/02 07:10:00;;;;;;;7.30;4.35;;;;;;;21.52;63.23;100727.41;3693413;79;99030;-81
2022/06/02 07:15:33;;;;;;;6.67;4.30;;;;;;;21.70;60.43;100722.86;3681781;79;99320;-80
2022/06/02 07:21:03;;;;;;;7.37;4.60;;;;;;;21.83;60.79;100729.90;3690027;79;99162;-81
2022/06/02 07:26:53;;;;;;;6.15;4.45;;;;;;;22.03;58.02;100734.09;3664343;79;98757;-80
2022/06/02 07:32:27;;;;;;;8.55;4.03;;;;;;;22.15;58.83;100736.11;3691805;79;98922;-81
2022/06/02 07:37:55;;;;;;;5.95;4.03;;;;;;;22.51;58.55;100735.16;3692812;79;99385;-81
2022/06/02 07:43:23;;;;;;;5.80;3.23;;;;;;;22.84;55.01;100740.66;3585669;81;98862;-81
2022/06/02 07:48:38;;;;;;;6.55;4.33;;;;;;;22.88;55.60;100741.97;3586855;81;98798;-78
2022/06/02 07:54:12;;;;;;;6.58;4.03;;;;;;;22.95;53.78;100739.67;3650128;80;98592;-78
2022/06/02 07:59:30;;;;;;;3.67;2.90;;;;;;;23.04;53.24;100746.02;3669616;79;26504;-80
2022/06/02 08:05:00;;;;;;;4.78;2.80;;;;;;;22.88;52.77;100756.00;3655959;80;99249;-80
2022/06/02 08:10:18;;;;;;;5.03;2.70;;;;;;;22.95;51.49;100764.17;3669686;78;99077;-81
2022/06/02 08:15:37;;;;;;;4.72;2.87;;;;;;;22.97;51.71;100772.91;3652140;80;99273;-81
2022/06/02 08:20:58;;;;;;;4.50;2.62;;;;;;;23.17;50.78;100778.44;3668339;79;99170;-80
2022/06/02 08:26:04;;;;;;;3.42;2.27;;;;;;;23.07;50.36;100781.59;3661565;80;99242;-78
2022/06/02 08:31:14;;;;;;;4.00;2.70;;;;;;;23.42;49.95;100782.56;3663998;80;99174;-81
2022/06/02 08:36:22;;;;;;;4.62;2.90;;;;;;;23.83;47.94;100792.72;3645561;80;98809;-78
2022/06/02 08:42:00;;;;;;;3.27;2.15;;;;;;;23.60;46.93;100802.38;3660867;80;98483;-80
2022/06/02 08:47:21;;;;;;;4.95;2.22;;;;;;;23.82;47.42;100807.38;3671393;80;99035;-81
2022/06/02 08:52:53;;;;;;;3.22;2.10;;;;;;;24.01;45.10;100807.70;3580586;80;98786;-80
2022/06/02 08:58:24;;;;;;;4.87;2.22;;;;;;;24.39;45.24;100812.45;3664236;80;98932;-81
2022/06/02 09:04:09;;;;;;;5.40;2.98;;;;;;;24.44;45.20;100816.69;3657617;79;98898;-80
2022/06/02 09:09:59;;;;;;;4.20;2.55;;;;;;;24.95;44.64;100831.94;3666292;80;99417;-79
2022/06/02 09:15:47;;;;;;;4.28;1.57;;;;;;;25.02;42.61;100830.99;3532439;82;122470;-79
2022/06/02 09:20:59;;;;;;;3.25;1.57;;;;;;;24.56;43.21;100840.52;3657296;80;99090;-80
2022/06/02 09:26:33;;;;;;;3.25;1.92;;;;;;;24.36;42.63;100845.72;3655773;80;98882;-80
2022/06/02 09:31:52;;;;;;;4.08;2.37;;;;;;;24.41;42.58;100845.12;3658547;80;98850;-79
2022/06/02 09:37:20;;;;;;;2.83;1.60;;;;;;;24.85;42.71;100846.59;3661537;80;98862;-80
2022/06/02 09:42:42;;;;;;;2.05;1.55;;;;;;;24.36;42.09;100857.61;3655748;80;98770;-80
2022/06/02 09:48:19;;;;;;;3.15;1.70;;;;;;;24.40;42.78;100849.80;3676813;80;26333;-80
2022/06/02 09:53:34;;;;;;;2.70;1.82;;;;;;;24.49;42.62;100863.92;3577529;80;98548;-79
2022/06/02 09:58:59;;;;;;;2.05;1.52;;;;;;;24.45;40.88;100862.66;3669447;80;98576;-80
2022/06/02 10:04:29;;;;;;;2.23;1.67;;;;;;;23.94;40.83;100864.22;3662534;79;98731;-80
2022/06/02 10:09:51;;;;;;;4.37;1.70;;;;;;;23.56;41.52;100872.59;3476420;83;98835;-79
2022/06/02 10:15:43;;;;;;;3.13;2.13;;;;;;;23.04;41.80;100864.70;3615740;80;98775;-76
2022/06/02 10:21:27;;;;;;;4.65;2.20;;;;;;;22.75;42.30;100865.47;3652536;80;98998;-79
2022/06/02 10:27:05;;;;;;;4.87;1.85;;;;;;;22.63;41.84;100866.86;3544728;82;98865;-80
2022/06/02 10:32:33;;;;;;;3.60;1.98;;;;;;;23.03;42.89;100865.16;3565988;81;98919;-80
2022/06/02 10:38:09;;;;;;;3.37;2.37;;;;;;;23.38;41.55;100862.61;3580093;81;98836;-80
2022/06/02 10:43:53;;;;;;;3.35;2.00;;;;;;;23.32;41.55;100877.06;3663926;79;99350;-79
2022/06/02 10:49:39;;;;;;;2.10;1.40;;;;;;;22.92;41.75;100876.73;3676992;78;98895;-77
2022/06/02 10:55:27;;;;;;;2.83;1.70;;;;;;;22.72;41.84;100883.82;3669986;79;99276;-78
2022/06/02 11:01:05;;;;;;;2.10;1.57;;;;;;;22.77;41.41;100886.84;3678204;78;99366;-76
2022/06/02 11:06:49;;;;;;;4.20;1.27;;;;;;;22.53;41.84;100889.81;3675584;79;25963;-77
2022/06/02 11:12:22;;;;;;;3.90;1.57;;;;;;;22.61;43.44;100881.96;3679277;79;98528;-77
2022/06/02 11:17:37;;;;;;;2.22;1.40;;;;;;;22.74;42.18;100892.56;3678909;78;99142;-77
2022/06/02 11:23:11;;;;;;;;;;;;;;;22.50;41.83;100901.14;3621369;80;98685;-77
2022/06/02 11:28:32;;;;;;;2.95;1.50;;;;;;;22.43;39.90;100895.69;3672343;80;84146;-77
2022/06/02 11:33:58;;;;;;;1.90;1.17;;;;;;;22.94;40.56;100894.55;3654218;80;98984;-76
2022/06/02 11:39:03;;;;;;;;;;;;;;;23.58;42.29;100889.78;3679931;80;98691;-76
2022/06/02 11:44:14;;;;;;;3.83;1.60;;;;;;;24.15;38.86;100885.14;3660627;79;85030;-76
2022/06/02 11:49:43;;;;;;;3.83;1.77;;;;;;;24.06;38.56;100880.23;3615631;79;98823;-78
2022/06/02 11:55:10;;;;;;;4.00;1.52;;;;;;;24.15;40.53;100894.98;3532266;82;98447;-78
2022/06/02 12:00:52;;;;;;;6.08;1.52;;;;;;;24.48;38.86;100891.91;3661777;80;26441;-79
2022/06/02 12:06:35;;;;;;;3.45;1.70;;;;;;;24.78;38.41;100903.20;3670396;80;98650;-78
2022/06/02 12:11:51;;;;;;;2.40;1.70;;;;;;;25.02;39.49;100896.41;3658048;80;99063;-78
2022/06/02 12:16:55;;;;;;;;;;;;;;;25.12;38.80;100904.42;3670648;80;98653;-78
2022/06/02 12:22:50;;;;;;;4.10;1.87;;;;;;;24.76;38.79;100905.70;3664986;80;84703;-78
2022/06/02 12:28:14;;;;;;;3.12;1.60;;;;;;;24.74;39.13;100901.14;3662769;80;98750;-76
2022/06/02 12:33:36;;;;;;;4.17;1.72;;;;;;;24.67;38.97;100902.83;3529189;82;98786;-78
2022/06/02 12:39:11;;;;;;;3.90;1.80;;;;;;;24.59;39.34;100908.59;3562485;82;98791;-78
2022/06/02 12:44:35;;;;;;;3.63;1.50;;;;;;;24.26;38.67;100905.22;3526441;83;98893;-78
2022/06/02 12:50:09;;;;;;;2.45;1.42;;;;;;;24.05;39.60;100908.81;3542888;83;99202;-79
2022/06/02 12:55:47;;;;;;;3.25;1.50;;;;;;;23.51;39.47;100911.11;3474988;82;98944;-79
2022/06/02 13:01:14;;;;;;;4.08;1.57;;;;;;;23.77;39.93;100909.80;3564117;81;98607;-79
2022/06/02 13:06:44;;;;;;;1.90;1.40;;;;;;;23.86;40.08;100914.11;3539305;82;97823;-80
2022/06/02 13:12:20;;;;;;;2.67;1.80;;;;;;;24.04;39.64;100912.23;3519141;82;98878;-80
2022/06/02 13:17:33;;;;;;;4.85;1.72;;;;;;;24.49;39.57;100916.78;3525335;82;98754;-81
2022/06/02 13:23:20;;;;;;;3.95;2.10;;;;;;;24.51;38.60;100927.56;3523956;82;98980;-81
2022/06/02 13:28:36;;;;;;;3.02;1.62;;;;;;;24.49;38.97;100918.19;3538517;81;98819;-80
2022/06/02 13:34:21;;;;;;;3.83;2.02;;;;;;;24.75;38.97;100911.78;3533431;81;98960;-79
2022/06/02 13:39:44;;;;;;;2.55;1.80;;;;;;;24.86;38.36;100924.83;3545284;82;99347;-80
2022/06/02 13:45:42;;;;;;;9.15;2.00;;;;;;;24.67;39.02;100920.33;3531825;81;99456;-79
2022/06/02 13:51:09;;;;;;;4.55;2.02;;;;;;;24.97;39.19;100921.76;3543916;81;99190;-79
2022/06/02 14:01:53;;;;;;;6.42;1.95;;;;;;;24.93;38.78;100926.73;3537424;81;98659;-80
2022/06/02 14:07:26;;;;;;;4.87;2.30;;;;;;;24.84;38.17;100930.14;3548492;82;98468;-81
2022/06/02 14:12:42;;;;;;;3.10;1.80;;;;;;;24.55;37.74;100924.80;3538887;81;99087;-79
2022/06/02 14:17:53;;;;;;;;;;;;;;;23.98;38.10;100930.94;3559795;81;98599;-79
2022/06/02 14:23:24;;;;;;;2.22;1.60;;;;;;;23.56;40.98;100940.04;3545491;81;84768;-79
2022/06/02 14:28:42;;;;;;;3.15;1.60;;;;;;;23.44;40.74;100923.36;3428446;82;98836;-79
2022/06/02 14:33:48;;;;;;;2.65;1.40;;;;;;;23.56;40.70;100935.83;3539760;81;98858;-79
2022/06/02 14:39:04;;;;;;;3.80;2.52;;;;;;;23.36;40.94;100932.48;3543094;81;99189;-79
2022/06/02 14:44:53;;;;;;;4.75;1.80;;;;;;;23.19;40.72;100938.06;3552352;81;99508;-79
2022/06/02 14:50:36;;;;;;;4.03;1.70;;;;;;;22.94;40.88;100950.05;3571020;81;32898;-80
2022/06/02 14:55:57;;;;;;;3.75;1.98;;;;;;;22.88;41.51;100945.47;3564178;81;98412;-78
2022/06/02 15:01:35;;;;;;;2.63;1.83;;;;;;;22.86;40.83;100947.92;3530302;82;98979;-77
2022/06/02 15:06:57;;;;;;;1.57;1.25;;;;;;;22.71;41.63;100950.38;3539325;82;98633;-79
2022/06/02 15:12:35;;;;;;;3.95;1.80;;;;;;;22.97;42.29;100953.38;3535724;79;98774;-77
2022/06/02 15:18:02;;;;;;;2.80;1.75;;;;;;;22.72;39.08;100958.19;3557342;81;98853;-78
2022/06/02 15:23:40;;;;;;;5.33;2.17;;;;;;;22.31;40.13;100952.55;3541339;81;98842;-78
2022/06/02 15:28:57;;;;;;;2.33;1.82;;;;;;;22.16;39.98;100958.38;3551873;82;99159;-78
2022/06/02 15:34:13;;;;;;;5.47;1.67;;;;;;;21.97;41.05;100963.52;3540462;82;98872;-78
2022/06/02 15:39:54;;;;;;;3.47;1.72;;;;;;;21.82;42.75;100959.52;3542249;82;99311;-77
2022/06/02 15:45:35;;;;;;;2.90;1.60;;;;;;;21.85;43.58;100959.42;3513762;82;98764;-77
2022/06/02 15:51:10;;;;;;;3.95;1.77;;;;;;;21.92;43.90;100957.84;3520564;82;98734;-77
2022/06/02 15:56:45;;;;;;;5.13;2.00;;;;;;;21.94;43.87;100964.39;3508857;81;34921;-80
2022/06/02 16:02:01;;;;;;;5.58;1.67;;;;;;;21.97;44.47;100965.69;3505682;82;98892;-79
2022/06/02 16:07:45;;;;;;;3.35;1.50;;;;;;;21.88;44.41;100958.55;3546210;81;98579;-79
2022/06/02 16:13:26;;;;;;;2.92;1.85;;;;;;;21.58;43.99;100965.13;3526232;81;98837;-79
2022/06/02 16:19:03;;;;;;;2.47;1.52;;;;;;;21.35;44.03;100969.48;3516805;82;98709;-79
2022/06/02 16:24:25;;;;;;;16.73;2.60;;;;;;;21.22;44.60;100968.01;3555169;81;98815;-79
2022/06/02 16:30:06;;;;;;;3.02;1.80;;;;;;;21.20;44.58;100969.67;3517514;83;99479;-79
2022/06/02 16:35:33;;;;;;;3.65;1.65;;;;;;;21.09;44.88;100969.13;3498568;82;99288;-79
2022/06/02 16:41:16;;;;;;;2.50;1.92;;;;;;;21.01;45.05;100970.50;3508319;82;98890;-79
2022/06/02 16:46:43;;;;;;;2.62;1.40;;;;;;;20.73;44.74;100966.31;3486145;83;98787;-79
2022/06/02 16:52:12;;;;;;;2.37;1.47;;;;;;;20.59;44.95;100974.22;3512574;80;98760;-81
2022/06/02 16:57:54;;;;;;;1.95;1.55;;;;;;;20.56;45.74;100973.67;3559112;82;99061;-79
2022/06/02 17:03:45;;;;;;;2.67;1.70;;;;;;;20.46;46.00;100972.68;3563676;80;99132;-78
2022/06/02 17:09:20;;;;;;;9.93;2.17;;;;;;;20.41;46.04;100971.78;3569844;80;32912;-79
2022/06/02 17:14:52;;;;;;;4.42;1.85;;;;;;;20.32;46.35;100977.15;3559069;80;98734;-79
2022/06/02 17:20:47;;;;;;;4.75;1.82;;;;;;;20.15;46.35;100976.09;3568020;80;98723;-79
2022/06/02 17:26:29;;;;;;;2.80;1.45;;;;;;;19.95;45.91;100980.84;3570131;80;98649;-80
2022/06/02 17:32:10;;;;;;;4.58;2.35;;;;;;;19.77;45.98;100983.95;3560398;80;99109;-78
2022/06/02 17:37:51;;;;;;;3.77;1.67;;;;;;;19.58;46.41;100986.09;3534381;81;99084;-79
2022/06/02 17:43:22;;;;;;;2.50;1.85;;;;;;;19.40;46.33;100987.59;3618769;78;99113;-79
2022/06/02 17:49:13;;;;;;;2.15;1.07;;;;;;;19.23;46.64;100990.06;3585875;81;98809;-79
2022/06/02 17:54:50;;;;;;;2.75;1.22;;;;;;;19.02;46.55;100993.89;3543305;81;98905;-79
2022/06/02 18:00:11;;;;;;;;;;;;;;;18.87;47.25;100989.75;3590177;81;98726;-79
2022/06/02 18:05:40;;;;;;;4.25;1.50;;;;;;;18.71;48.08;100999.33;3599162;80;84983;-79
2022/06/02 18:11:29;;;;;;;2.12;1.30;;;;;;;18.55;47.93;100994.14;3600664;80;98741;-78
2022/06/02 18:16:47;;;;;;;2.72;1.32;;;;;;;18.33;48.40;100991.42;3593638;81;98843;-78
2022/06/02 18:22:08;;;;;;;1.50;1.30;;;;;;;18.11;49.35;100999.20;3587248;81;98732;-79
2022/06/02 18:27:21;;;;;;;3.20;1.57;;;;;;;17.92;49.47;101002.57;3600663;81;36261;-79
2022/06/02 18:33:01;;;;;;;2.27;1.22;;;;;;;17.74;49.79;101005.33;3588492;81;98668;-78
2022/06/02 18:38:52;;;;;;;4.80;1.47;;;;;;;17.56;50.41;101013.81;3596789;79;98977;-78
2022/06/02 18:44:14;;;;;;;4.17;1.62;;;;;;;17.30;50.96;101015.80;3634860;79;98831;-80
2022/06/02 18:49:32;;;;;;;3.80;1.90;;;;;;;17.08;52.34;101023.28;3653138;79;98802;-79
2022/06/02 18:55:16;;;;;;;3.90;2.35;;;;;;;16.85;53.18;101026.58;3653429;79;98903;-80
2022/06/02 19:00:44;;;;;;;4.80;2.17;;;;;;;16.58;53.97;101033.06;3648174;79;99262;-80
2022/06/02 19:18:01;;;;;;;6.65;2.40;;;;;;;15.91;56.31;101062.33;3654634;79;99035;-81
2022/06/02 19:23:59;;;;;;;6.42;2.70;;;;;;;15.63;57.19;101062.91;3657840;79;99302;-81
2022/06/02 19:29:38;;;;;;;7.35;2.90;;;;;;;15.39;58.19;101072.02;3665305;79;98871;-81
2022/06/02 19:35:00;;;;;;;6.87;2.62;;;;;;;15.14;59.13;101074.70;3662199;79;98849;-81
2022/06/02 19:40:12;;;;;;;6.42;3.08;;;;;;;14.95;59.77;101087.52;3668209;79;99194;-81
2022/06/02 19:45:43;;;;;;;6.80;3.10;;;;;;;14.78;60.72;101093.76;3667070;79;98574;-81
2022/06/02 19:51:02;;;;;;;6.37;3.62;;;;;;;14.61;60.92;101094.47;3652929;80;33353;-80
2022/06/02 19:56:31;;;;;;;8.45;3.60;;;;;;;14.45;61.51;101098.73;3655611;80;98694;-80
2022/06/02 20:01:43;;;;;;;8.05;3.50;;;;;;;14.28;62.05;101111.28;3659568;79;98795;-81
2022/06/02 20:07:04;;;;;;;8.88;3.72;;;;;;;14.10;62.11;101105.38;3668697;79;98776;-81
2022/06/02 20:12:34;;;;;;;8.05;4.00;;;;;;;14.01;62.37;101111.85;3652608;79;98817;-81
2022/06/02 20:17:47;;;;;;;10.43;4.17;;;;;;;13.78;63.04;101111.23;3642864;79;98977;-79
2022/06/02 20:23:15;;;;;;;8.85;4.40;;;;;;;13.60;63.22;101113.05;3594886;80;98947;-79
2022/06/02 20:28:24;;;;;;;10.68;4.15;;;;;;;13.41;64.24;101125.10;3485884;83;98782;-80
2022/06/02 20:33:39;;;;;;;8.03;3.40;;;;;;;13.23;64.25;101120.55;3474728;83;98919;-77
2022/06/02 20:39:36;;;;;;;8.05;3.55;;;;;;;13.10;64.72;101122.80;3569698;81;98598;-79
2022/06/02 20:45:03;;;;;;;15.67;5.60;;;;;;;12.95;64.79;101123.76;3570583;80;98627;-79
2022/06/02 20:50:28;;;;;;;10.08;4.67;;;;;;;12.82;65.39;101125.15;3580279;80;98753;-80
2022/06/02 20:55:45;;;;;;;12.18;4.70;;;;;;;12.65;65.50;101131.23;3569496;80;98939;-79
2022/06/02 21:00:57;;;;;;;11.83;4.87;;;;;;;12.50;66.21;101136.38;3589279;80;99364;-79
2022/06/02 21:06:21;;;;;;;8.60;3.85;;;;;;;12.33;66.86;101140.24;3577660;80;98975;-79
2022/06/02 21:11:30;;;;;;;7.97;3.75;;;;;;;12.22;67.11;101144.20;3569874;80;98873;-79
2022/06/02 21:16:49;;;;;;;9.40;4.97;;;;;;;12.12;67.29;101147.61;3580510;80;99245;-79
2022/06/02 21:22:33;;;;;;;12.00;5.33;;;;;;;12.02;67.71;101150.98;3564849;81;98547;-80
2022/06/02 21:27:37;;;;;;;11.70;5.72;;;;;;;11.78;68.28;101149.97;3567567;81;32937;-80
2022/06/02 21:32:49;;;;;;;17.53;8.97;;;;;;;11.78;68.28;101149.97;3578071;81;99191;-79
2022/06/02 21:37:57;;;;;;;20.60;9.13;;;;;;;11.71;68.37;101154.55;3596224;80;99212;-79
2022/06/02 21:43:18;;;;;;;18.48;7.85;;;;;;;11.61;68.55;101159.32;3605346;80;99029;-79
2022/06/02 21:48:49;;;;;;;13.65;6.25;;;;;;;11.44;69.29;101159.16;3617278;79;99086;-79
2022/06/02 21:53:59;;;;;;;20.40;8.13;;;;;;;11.22;69.42;101135.11;3610975;79;99475;-79
2022/06/02 21:59:12;;;;;;;16.12;7.85;;;;;;;11.26;69.71;101157.22;3629639;80;99337;-78
2022/06/02 22:04:29;;;;;;;19.52;7.95;;;;;;;11.15;69.99;101161.72;3641008;80;98697;-79
2022/06/02 22:09:39;;;;;;;18.40;8.85;;;;;;;10.97;70.16;101162.72;3654378;79;98572;-81
2022/06/02 22:14:45;;;;;;;14.38;6.75;;;;;;;10.97;70.16;101162.72;3652107;79;98842;-86
2022/06/02 22:20:07;;;;;;;14.40;7.05;;;;;;;10.86;70.74;101164.45;3665271;79;99378;-85
2022/06/02 22:25:32;;;;;;;14.13;6.27;;;;;;;10.76;71.07;101171.12;3666850;79;98933;-85
2022/06/02 22:30:47;;;;;;;12.53;5.62;;;;;;;10.64;71.72;101174.00;3654250;79;99006;-85
2022/06/02 22:36:13;;;;;;;10.72;5.12;;;;;;;10.54;71.63;101173.98;3646158;79;99318;-85
2022/06/02 22:41:31;;;;;;;10.18;4.90;;;;;;;10.43;72.17;101178.45;3650668;79;99768;-85
2022/06/02 22:46:50;;;;;;;8.25;3.90;;;;;;;10.31;72.85;101174.99;3658363;79;32935;-85
2022/06/02 22:52:02;;;;;;;8.10;4.12;;;;;;;10.21;72.61;101177.72;3662490;80;98703;-86
2022/06/02 22:57:20;;;;;;;6.87;3.50;;;;;;;10.13;73.21;101186.94;3605053;80;98984;-85
2022/06/02 23:02:35;;;;;;;6.75;3.35;;;;;;;10.06;72.84;101187.33;3498832;81;98449;-85
2022/06/02 23:08:07;;;;;;;7.30;3.20;;;;;;;10.00;72.90;101186.78;3675942;80;98576;-85
2022/06/02 23:13:35;;;;;;;8.48;3.62;;;;;;;9.94;72.91;101184.08;3663528;80;99009;-85
2022/06/02 23:18:54;;;;;;;6.67;3.30;;;;;;;9.84;73.72;101187.91;3636481;80;99217;-85
2022/06/02 23:24:42;;;;;;;7.67;3.52;;;;;;;9.72;74.29;101183.87;3664635;80;98400;-86
2022/06/02 23:30:05;;;;;;;6.50;3.55;;;;;;;9.65;73.86;101184.47;3662903;80;98605;-85
2022/06/02 23:35:56;;;;;;;5.80;2.87;;;;;;;9.58;74.15;101188.97;3654481;80;98796;-84
2022/06/02 23:47:37;;;;;;;6.20;2.95;;;;;;;9.44;75.04;101191.35;3665110;80;98600;-86
2022/06/02 23:53:23;;;;;;;7.42;3.85;;;;;;;9.31;74.83;101195.28;3670705;80;98473;-86
2022/06/02 23:58:56;;;;;;;6.53;3.33;;;;;;;9.22;75.91;101200.92;3528217;83;33339;-86
